Time;durP1;ratioP1;P1;durP2;ratioP2;P2;SDS_P1;SDS_P2;PMS_P1;PMS_P2;Temp;Humidity;BMP_temperature;BMP_pressure;BME280_temperature;BME280_humidity;BME280_pressure;Samples;Min_cycle;Max_cycle;Signal;HPM_P1;HPM_P2
2023/01/10 00:00:35;;;;;;;21.00;6.30;;;9.20;99.90;;;;;;5006594;28;20065;-85
2023/01/10 00:03:04;;;;;;;17.23;6.88;;;9.30;99.90;;;;;;5014110;28;20467;-86
2023/01/10 00:05:31;;;;;;;20.65;6.53;;;9.20;99.90;;;;;;5013636;28;20069;-87
2023/01/10 00:07:57;;;;;;;20.05;7.03;;;9.40;99.90;;;;;;5014223;28;20214;-83
2023/01/10 00:10:24;;;;;;;16.60;6.10;;;9.10;99.90;;;;;;5012792;28;20037;-87
2023/01/10 00:15:35;;;;;;;21.40;6.65;;;9.10;99.90;;;;;;5013807;28;20483;-85
2023/01/10 00:18:01;;;;;;;20.95;6.57;;;9.20;99.90;;;;;;5012940;28;20030;-86
2023/01/10 00:20:27;;;;;;;13.32;6.35;;;9.10;99.90;;;;;;5012148;28;20036;-83
2023/01/10 00:22:52;;;;;;;17.33;6.82;;;9.10;99.90;;;;;;5012257;28;20128;-85
2023/01/10 00:25:21;;;;;;;18.17;6.85;;;9.10;99.90;;;;;;5012788;28;20398;-85
2023/01/10 00:27:56;;;;;;;14.93;6.78;;;8.90;99.90;;;;;;5012766;28;20052;-83
2023/01/10 00:30:22;;;;;;;17.88;7.03;;;9.00;99.90;;;;;;5013016;28;20026;-85
2023/01/10 00:32:48;;;;;;;17.13;6.72;;;8.80;99.90;;;;;;5013665;28;20509;-87
2023/01/10 00:35:15;;;;;;;13.80;7.18;;;8.90;99.90;;;;;;5011767;28;20029;-85
2023/01/10 00:37:40;;;;;;;16.20;7.40;;;8.90;99.90;;;;;;5012981;28;20061;-87
2023/01/10 00:40:08;;;;;;;15.18;6.93;;;9.00;99.90;;;;;;5013186;28;20062;-86
2023/01/10 00:45:19;;;;;;;19.55;6.75;;;9.20;99.90;;;;;;5013102;28;20041;-87
2023/01/10 00:47:45;;;;;;;18.40;7.57;;;9.10;99.90;;;;;;5014014;28;20033;-86
2023/01/10 00:50:11;;;;;;;20.80;7.18;;;9.10;99.90;;;;;;5011969;28;20440;-86
2023/01/10 00:52:36;;;;;;;17.42;7.72;;;9.20;99.90;;;;;;5014331;28;20044;-85
2023/01/10 00:55:03;;;;;;;20.30;7.45;;;9.00;99.90;;;;;;5020253;28;20021;-85
2023/01/10 00:57:28;;;;;;;13.38;7.55;;;9.10;99.90;;;;;;5014220;28;20116;-87
2023/01/10 00:59:54;;;;;;;13.60;7.03;;;9.10;99.90;;;;;;5013641;28;20033;-85
2023/01/10 01:02:20;;;;;;;16.05;7.95;;;9.10;99.90;;;;;;5012972;28;20042;-85
2023/01/10 01:04:45;;;;;;;18.67;8.32;;;9.00;99.90;;;;;;5013030;28;20038;-85
2023/01/10 01:07:12;;;;;;;18.52;8.10;;;9.00;99.90;;;;;;5011726;28;20065;-85
2023/01/10 01:10:25;;;;;;;18.90;8.75;;;8.90;99.90;;;;;;5012315;28;20030;-86
2023/01/10 01:12:23;;;;;;;17.80;7.95;;;8.80;99.90;;;;;;5012046;28;20084;-86
2023/01/10 01:14:49;;;;;;;16.58;7.88;;;9.00;99.90;;;;;;5014107;28;20026;-86
2023/01/10 01:17:16;;;;;;;18.30;7.53;;;8.90;99.90;;;;;;5013593;28;20385;-85
2023/01/10 01:19:43;;;;;;;20.75;7.43;;;9.00;99.90;;;;;;5012681;28;20026;-84
2023/01/10 01:22:09;;;;;;;14.50;7.50;;;9.00;99.90;;;;;;5011048;28;20026;-85
2023/01/10 01:24:35;;;;;;;17.50;7.30;;;9.10;99.90;;;;;;5011626;28;20037;-84
2023/01/10 01:27:01;;;;;;;15.32;8.18;;;9.00;99.90;;;;;;5010860;28;20046;-84
2023/01/10 01:29:27;;;;;;;15.40;7.82;;;9.00;99.90;;;;;;5011631;28;20033;-83
2023/01/10 01:31:53;;;;;;;21.25;8.93;;;8.90;99.90;;;;;;5010559;28;20044;-84
2023/01/10 01:34:19;;;;;;;16.27;7.95;;;9.00;99.90;;;;;;5012006;28;20041;-84
2023/01/10 01:36:46;;;;;;;14.82;8.00;;;8.90;99.90;;;;;;5012055;28;20076;-84
2023/01/10 01:39:11;;;;;;;16.63;8.82;;;8.80;99.90;;;;;;5011425;28;20072;-85
2023/01/10 01:44:22;;;;;;;21.05;8.40;;;8.90;99.90;;;;;;5011167;28;20265;-84
2023/01/10 01:47:09;;;;;;;18.85;8.75;;;8.80;99.90;;;;;;5010683;28;20038;-85
2023/01/10 01:49:39;;;;;;;16.83;8.00;;;8.80;99.90;;;;;;5010705;28;20164;-84
2023/01/10 01:52:26;;;;;;;17.45;8.32;;;8.80;99.90;;;;;;5011189;28;20034;-82
2023/01/10 01:54:54;;;;;;;21.52;9.55;;;8.80;99.90;;;;;;5010520;28;20030;-85
2023/01/10 01:57:24;;;;;;;16.70;8.10;;;8.80;99.90;;;;;;5009913;28;20105;-84
2023/01/10 01:59:53;;;;;;;17.98;8.43;;;8.70;99.90;;;;;;5011930;28;20030;-84
2023/01/10 02:02:23;;;;;;;19.30;8.77;;;8.80;99.90;;;;;;5010458;28;20458;-85
2023/01/10 02:04:53;;;;;;;20.40;8.70;;;8.70;99.90;;;;;;5011610;28;20035;-85
2023/01/10 02:07:21;;;;;;;17.20;8.40;;;8.80;99.90;;;;;;5010088;28;20030;-83
2023/01/10 02:10:12;;;;;;;21.38;9.20;;;8.80;99.90;;;;;;5011558;28;20460;-84
2023/01/10 02:12:39;;;;;;;16.08;8.40;;;8.60;99.90;;;;;;5009347;28;20026;-85
2023/01/10 02:15:08;;;;;;;19.10;9.25;;;8.60;99.90;;;;;;5011597;28;20054;-86
2023/01/10 02:17:34;;;;;;;21.02;8.23;;;8.60;99.90;;;;;;5010919;28;20041;-83
2023/01/10 02:20:06;;;;;;;14.00;7.80;;;8.50;99.90;;;;;;5013437;28;20026;-84
2023/01/10 02:22:51;;;;;;;18.27;7.50;;;8.60;99.90;;;;;;5014900;28;20121;-85
2023/01/10 02:25:25;;;;;;;17.30;8.48;;;8.50;99.90;;;;;;5015005;28;20126;-84
2023/01/10 02:28:12;;;;;;;15.85;7.63;;;8.40;99.90;;;;;;5013928;28;20034;-84
2023/01/10 02:31:12;;;;;;;24.80;8.80;;;8.50;99.90;;;;;;5013562;28;20476;-86
2023/01/10 02:33:46;;;;;;;19.55;7.85;;;8.50;99.90;;;;;;5013569;28;20049;-85
2023/01/10 02:36:25;;;;;;;14.68;7.45;;;8.60;99.90;;;;;;5013992;28;20057;-84
2023/01/10 02:38:54;;;;;;;15.63;7.38;;;8.60;99.90;;;;;;5030464;28;20371;-85
2023/01/10 02:41:52;;;;;;;14.98;6.88;;;8.60;99.90;;;;;;5013207;28;20034;-85
2023/01/10 02:44:29;;;;;;;17.85;6.80;;;8.50;99.90;;;;;;5014588;28;20030;-86
2023/01/10 02:46:55;;;;;;;16.58;7.20;;;8.50;99.90;;;;;;5029833;28;20038;-86
2023/01/10 02:49:21;;;;;;;10.00;6.03;;;8.60;99.90;;;;;;5014665;28;20051;-85
2023/01/10 02:51:47;;;;;;;17.65;6.43;;;8.60;99.90;;;;;;5014794;28;20365;-85
2023/01/10 02:54:29;;;;;;;19.27;7.10;;;8.50;99.90;;;;;;5030115;28;20027;-82
2023/01/10 02:57:23;;;;;;;14.70;6.18;;;8.50;99.90;;;;;;5015151;28;20144;-85
2023/01/10 03:00:15;;;;;;;14.20;5.43;;;8.70;99.90;;;;;;5014562;28;20058;-86
2023/01/10 03:03:06;;;;;;;16.35;5.75;;;8.50;99.90;;;;;;5013658;28;20073;-85
2023/01/10 03:06:00;;;;;;;16.30;5.70;;;8.60;99.90;;;;;;5014802;28;20068;-86
2023/01/10 03:08:49;;;;;;;24.80;11.38;;;8.60;99.90;;;;;;5030152;28;20449;-85
2023/01/10 03:11:38;;;;;;;78.38;39.28;;;8.70;99.90;;;;;;5014225;28;20080;-84
2023/01/10 03:14:04;;;;;;;13.93;5.13;;;8.60;99.90;;;;;;5014204;28;20033;-85
2023/01/10 03:16:33;;;;;;;11.63;4.63;;;8.50;99.90;;;;;;5029739;28;20408;-83
2023/01/10 03:19:12;;;;;;;10.00;4.00;;;8.40;99.90;;;;;;5029880;28;20108;-86
2023/01/10 03:21:39;;;;;;;21.73;5.10;;;8.60;99.90;;;;;;5030297;28;20416;-85
2023/01/10 03:24:11;;;;;;;18.60;5.07;;;8.50;99.90;;;;;;5029936;28;20383;-85
2023/01/10 03:27:06;;;;;;;11.73;4.70;;;8.60;99.90;;;;;;5029697;28;20137;-86
2023/01/10 03:29:56;;;;;;;13.40;4.38;;;8.50;99.90;;;;;;5013555;28;20155;-84
2023/01/10 03:32:27;;;;;;;12.85;4.22;;;8.60;99.90;;;;;;5029379;28;20041;-85
2023/01/10 03:34:53;;;;;;;16.67;4.13;;;8.60;99.90;;;;;;5029245;28;20166;-86
2023/01/10 03:37:56;;;;;;;10.80;4.15;;;8.60;99.90;;;;;;5029252;28;20462;-84
2023/01/10 03:40:24;;;;;;;12.95;3.97;;;8.60;99.90;;;;;;5013451;28;20476;-85
2023/01/10 03:45:59;;;;;;;13.90;3.70;;;8.50;99.90;;;;;;5013942;28;20091;-86
2023/01/10 03:48:32;;;;;;;11.80;3.60;;;8.40;99.90;;;;;;5029290;28;20026;-86
2023/01/10 03:51:01;;;;;;;8.70;3.47;;;8.50;99.90;;;;;;5030084;28;20030;-86
2023/01/10 03:53:27;;;;;;;12.15;3.38;;;8.60;99.90;;;;;;5013860;28;20045;-87
2023/01/10 03:55:54;;;;;;;12.57;3.42;;;8.60;99.90;;;;;;5013595;28;20026;-84
2023/01/10 03:58:20;;;;;;;8.65;2.78;;;8.60;99.90;;;;;;5029486;28;20057;-87
2023/01/10 04:00:47;;;;;;;22.40;3.30;;;8.60;99.90;;;;;;5014188;28;20117;-85
2023/01/10 04:03:14;;;;;;;8.68;3.05;;;8.50;99.90;;;;;;5029457;28;20018;-83
2023/01/10 04:05:40;;;;;;;12.73;2.95;;;8.50;99.90;;;;;;5014541;28;20021;-84
2023/01/10 04:08:06;;;;;;;13.20;3.22;;;8.60;99.90;;;;;;5028740;28;20044;-83
2023/01/10 04:10:32;;;;;;;11.82;3.30;;;8.60;99.90;;;;;;5028694;28;20026;-85
2023/01/10 04:13:01;;;;;;;11.10;3.08;;;8.60;99.90;;;;;;5013244;28;20030;-86
2023/01/10 04:15:27;;;;;;;11.73;2.97;;;8.60;99.90;;;;;;5028733;28;20053;-85
2023/01/10 04:17:53;;;;;;;16.73;2.80;;;8.50;99.90;;;;;;5029116;28;20083;-85
2023/01/10 04:20:20;;;;;;;16.83;3.40;;;8.60;99.90;;;;;;5028951;28;20062;-85
2023/01/10 04:22:46;;;;;;;10.15;3.05;;;8.70;99.90;;;;;;5012934;28;20484;-85
2023/01/10 04:25:11;;;;;;;15.88;3.65;;;8.70;99.90;;;;;;5027944;28;20053;-84
2023/01/10 04:27:37;;;;;;;13.23;2.72;;;8.50;99.90;;;;;;5028082;28;20026;-85
2023/01/10 04:30:03;;;;;;;20.83;3.15;;;8.50;99.90;;;;;;5013237;28;20101;-87
2023/01/10 04:32:29;;;;;;;19.38;3.40;;;8.70;99.90;;;;;;5029051;28;20030;-87
2023/01/10 04:34:54;;;;;;;10.95;2.70;;;8.80;99.90;;;;;;5013368;28;20040;-85
2023/01/10 04:37:20;;;;;;;17.83;3.47;;;8.60;99.90;;;;;;5027605;28;20088;-86
2023/01/10 04:39:46;;;;;;;19.92;3.88;;;8.60;99.90;;;;;;5012406;28;20103;-85
2023/01/10 04:42:12;;;;;;;21.60;3.85;;;8.60;99.90;;;;;;5027324;28;20595;-86
2023/01/10 04:44:38;;;;;;;24.65;3.75;;;8.60;99.90;;;;;;5028228;28;20038;-85
2023/01/10 04:47:04;;;;;;;18.10;3.72;;;8.60;99.90;;;;;;5028123;28;20423;-85
2023/01/10 04:49:30;;;;;;;12.60;3.63;;;8.70;99.90;;;;;;5027762;28;20030;-85
2023/01/10 04:51:55;;;;;;;16.20;3.40;;;8.70;99.90;;;;;;5012256;28;20056;-86
2023/01/10 04:54:22;;;;;;;11.13;3.78;;;8.70;99.90;;;;;;5013537;28;20025;-84
2023/01/10 04:56:48;;;;;;;11.90;4.03;;;8.70;99.90;;;;;;5015742;28;20317;-86
2023/01/10 04:59:16;;;;;;;16.00;3.20;;;8.70;99.90;;;;;;5012474;28;20026;-87
2023/01/10 05:01:42;;;;;;;15.18;4.13;;;8.70;99.90;;;;;;5028012;28;20479;-85
2023/01/10 05:04:08;;;;;;;18.13;4.00;;;8.70;99.90;;;;;;5028051;28;20034;-85
2023/01/10 05:06:34;;;;;;;14.32;3.67;;;8.70;99.90;;;;;;5027694;28;20130;-85
2023/01/10 05:09:00;;;;;;;15.27;4.35;;;8.60;99.90;;;;;;5012610;28;20524;-85
2023/01/10 05:11:26;;;;;;;18.60;3.90;;;8.60;99.90;;;;;;5013223;28;20049;-85
2023/01/10 05:13:51;;;;;;;17.00;3.88;;;8.70;99.90;;;;;;5027791;28;20388;-84
2023/01/10 05:16:17;;;;;;;21.98;3.55;;;8.70;99.90;;;;;;5012132;28;20052;-84
2023/01/10 05:18:43;;;;;;;17.48;4.05;;;8.60;99.90;;;;;;5027612;28;20041;-85
2023/01/10 05:21:11;;;;;;;16.08;3.88;;;8.60;99.90;;;;;;5012288;28;20564;-85
2023/01/10 05:23:38;;;;;;;13.70;3.67;;;8.60;99.90;;;;;;5026874;28;20140;-85
2023/01/10 05:26:15;;;;;;;13.02;3.72;;;8.50;99.90;;;;;;5012031;28;20042;-85
2023/01/10 05:28:42;;;;;;;15.68;3.50;;;8.50;99.90;;;;;;5026973;28;20041;-85
2023/01/10 05:31:11;;;;;;;17.88;3.72;;;8.60;99.90;;;;;;5027018;28;20345;-86
2023/01/10 05:33:37;;;;;;;15.93;3.40;;;8.50;99.90;;;;;;5026932;28;20030;-85
2023/01/10 05:36:05;;;;;;;16.65;3.80;;;8.50;99.90;;;;;;5012139;28;20464;-85
2023/01/10 05:38:31;;;;;;;21.73;3.78;;;8.40;99.90;;;;;;5027311;28;20030;-83
2023/01/10 05:40:58;;;;;;;16.60;3.03;;;8.40;99.90;;;;;;5027134;28;20041;-85
2023/01/10 05:43:25;;;;;;;18.25;4.10;;;8.40;99.90;;;;;;5028510;28;20143;-88
2023/01/10 05:45:51;;;;;;;20.05;3.88;;;8.50;99.90;;;;;;5032013;28;20080;-85
2023/01/10 05:48:17;;;;;;;18.30;3.38;;;8.50;99.90;;;;;;5029996;28;20091;-83
2023/01/10 05:50:43;;;;;;;23.80;3.60;;;8.40;99.90;;;;;;5014023;28;20014;-86
2023/01/10 05:53:08;;;;;;;18.35;3.70;;;8.40;99.90;;;;;;5028330;28;20042;-85
2023/01/10 05:55:34;;;;;;;22.33;3.72;;;8.40;99.90;;;;;;5031510;28;20030;-84
2023/01/10 05:58:00;;;;;;;21.50;3.80;;;8.40;99.90;;;;;;5015577;28;20117;-84
2023/01/10 06:00:26;;;;;;;19.48;3.30;;;8.40;99.90;;;;;;5030841;28;20041;-86
2023/01/10 06:02:55;;;;;;;21.85;3.35;;;8.40;99.90;;;;;;5016900;28;20050;-88
2023/01/10 06:05:22;;;;;;;20.42;3.85;;;8.40;99.90;;;;;;5031863;28;20084;-86
2023/01/10 06:07:49;;;;;;;19.42;3.80;;;8.40;99.90;;;;;;5031406;28;20038;-87
2023/01/10 06:10:16;;;;;;;17.52;3.75;;;8.40;99.90;;;;;;5031837;28;20095;-87
2023/01/10 06:12:42;;;;;;;16.42;3.55;;;8.50;99.90;;;;;;5032094;28;20546;-87
2023/01/10 06:15:09;;;;;;;18.80;3.35;;;8.40;99.90;;;;;;5032340;28;20267;-88
2023/01/10 06:17:35;;;;;;;16.50;3.40;;;8.50;99.90;;;;;;5030797;28;20030;-85
2023/01/10 06:20:01;;;;;;;17.08;3.38;;;8.50;99.90;;;;;;5017153;28;20060;-85
2023/01/10 06:22:27;;;;;;;20.30;3.78;;;8.40;99.90;;;;;;5034089;28;20036;-86
2023/01/10 06:24:54;;;;;;;22.73;4.45;;;8.70;99.90;;;;;;5035334;28;20068;-81
2023/01/10 06:27:20;;;;;;;18.27;4.10;;;8.50;99.90;;;;;;5034231;28;20040;-86
2023/01/10 06:29:46;;;;;;;16.58;3.90;;;8.40;99.90;;;;;;5035612;28;20335;-85
2023/01/10 06:32:12;;;;;;;17.15;4.30;;;8.40;99.90;;;;;;5033677;28;20372;-85
2023/01/10 06:34:40;;;;;;;16.90;4.93;;;8.40;99.90;;;;;;5033573;28;20038;-86
2023/01/10 06:37:07;;;;;;;19.98;4.45;;;8.40;99.90;;;;;;5035644;28;20360;-85
2023/01/10 06:39:32;;;;;;;18.50;4.90;;;8.40;99.90;;;;;;5034506;28;20033;-87
2023/01/10 06:41:58;;;;;;;22.30;5.13;;;8.40;99.90;;;;;;5034088;28;20056;-89
2023/01/10 06:44:24;;;;;;;23.80;5.70;;;8.40;99.90;;;;;;5034990;28;20097;-86
2023/01/10 06:46:49;;;;;;;16.08;4.93;;;8.40;99.90;;;;;;5016269;28;20491;-85
2023/01/10 06:49:15;;;;;;;26.17;5.40;;;8.40;99.90;;;;;;5014650;28;20227;-84
2023/01/10 06:51:40;;;;;;;16.20;4.65;;;8.40;99.90;;;;;;5013762;28;20037;-86
2023/01/10 06:54:06;;;;;;;17.00;6.13;;;8.40;99.90;;;;;;5015345;28;20026;-86
2023/01/10 06:56:32;;;;;;;19.92;5.55;;;8.40;99.90;;;;;;5014483;28;20135;-86
2023/01/10 06:58:58;;;;;;;19.77;5.28;;;8.40;99.90;;;;;;5014501;28;20072;-86
2023/01/10 07:01:23;;;;;;;18.90;4.90;;;8.40;99.90;;;;;;5013573;28;20121;-85
2023/01/10 07:03:49;;;;;;;14.82;5.13;;;8.50;99.90;;;;;;5013457;28;20103;-84
2023/01/10 07:06:15;;;;;;;30.75;6.43;;;8.40;99.90;;;;;;5012704;28;20109;-83
2023/01/10 07:08:44;;;;;;;15.35;4.82;;;8.40;99.90;;;;;;5016474;28;20038;-86
2023/01/10 07:11:10;;;;;;;23.05;5.97;;;8.60;99.90;;;;;;5014056;28;20030;-84
2023/01/10 07:13:36;;;;;;;14.95;5.10;;;8.50;99.90;;;;;;5015068;28;20057;-84
2023/01/10 07:16:03;;;;;;;19.42;6.43;;;8.60;99.90;;;;;;5015361;28;20053;-84
2023/01/10 07:18:28;;;;;;;20.63;5.82;;;8.70;99.90;;;;;;5014643;28;20014;-82
2023/01/10 07:20:54;;;;;;;18.58;5.82;;;8.70;99.90;;;;;;5014707;28;20033;-81
2023/01/10 07:23:21;;;;;;;19.15;6.20;;;8.60;99.90;;;;;;5014338;28;20084;-80
2023/01/10 07:25:46;;;;;;;22.88;5.18;;;8.60;99.90;;;;;;5014084;28;20045;-84
2023/01/10 07:28:12;;;;;;;20.98;5.82;;;8.60;99.90;;;;;;5012662;28;20526;-82
2023/01/10 07:30:38;;;;;;;24.58;5.63;;;8.50;99.90;;;;;;5013399;28;20030;-83
2023/01/10 07:33:05;;;;;;;15.52;4.97;;;8.60;99.90;;;;;;5015466;28;20022;-83
2023/01/10 07:35:31;;;;;;;21.75;5.43;;;8.50;99.90;;;;;;5013997;28;20052;-83
2023/01/10 07:38:02;;;;;;;24.33;5.22;;;8.60;99.90;;;;;;5013514;28;20104;-83
2023/01/10 07:40:28;;;;;;;19.00;5.82;;;8.60;99.90;;;;;;5013115;28;20349;-82
2023/01/10 07:42:59;;;;;;;19.27;4.95;;;8.60;99.90;;;;;;5012980;28;20096;-82
2023/01/10 07:45:25;;;;;;;19.23;5.28;;;8.60;99.90;;;;;;5013114;28;20026;-83
2023/01/10 07:48:03;;;;;;;14.63;4.68;;;8.60;99.90;;;;;;5016327;28;20037;-81
2023/01/10 07:50:33;;;;;;;73.95;30.90;;;8.60;99.90;;;;;;5018445;28;20029;-83
2023/01/10 07:52:59;;;;;;;41.20;15.57;;;8.60;99.90;;;;;;5017464;28;20037;-84
2023/01/10 07:55:26;;;;;;;20.63;6.43;;;8.80;99.90;;;;;;5016808;28;20094;-85
2023/01/10 07:57:52;;;;;;;19.05;5.13;;;8.70;99.90;;;;;;5018408;28;20033;-84
2023/01/10 08:00:19;;;;;;;14.98;5.13;;;8.70;99.90;;;;;;5017041;28;20060;-82
2023/01/10 08:02:45;;;;;;;14.38;5.28;;;8.70;99.90;;;;;;5021864;28;20022;-84
2023/01/10 08:05:11;;;;;;;22.15;4.95;;;8.70;99.90;;;;;;5019568;28;20041;-85
2023/01/10 08:07:37;;;;;;;20.67;5.50;;;8.70;99.90;;;;;;5023317;28;20569;-85
2023/01/10 08:10:04;;;;;;;20.10;5.72;;;8.70;99.90;;;;;;5023483;28;20114;-83
2023/01/10 08:12:29;;;;;;;15.60;4.70;;;8.80;99.90;;;;;;5020366;28;20022;-83
2023/01/10 08:14:55;;;;;;;20.67;6.32;;;8.70;99.90;;;;;;5021407;28;20033;-81
2023/01/10 08:17:21;;;;;;;23.70;6.18;;;8.70;99.90;;;;;;5022499;28;20069;-83
2023/01/10 08:19:47;;;;;;;16.02;4.95;;;8.80;99.90;;;;;;5021310;28;20029;-83
2023/01/10 08:22:13;;;;;;;24.15;6.22;;;8.80;99.90;;;;;;5019776;28;20083;-83
2023/01/10 08:24:38;;;;;;;23.42;5.88;;;8.80;99.90;;;;;;5022141;28;20053;-85
2023/01/10 08:27:04;;;;;;;12.88;5.22;;;8.80;99.90;;;;;;5017412;28;20349;-81
2023/01/10 08:29:30;;;;;;;18.90;5.28;;;8.90;99.90;;;;;;5018165;28;20114;-82
2023/01/10 08:31:56;;;;;;;17.00;4.78;;;8.90;99.90;;;;;;5017510;28;20030;-83
2023/01/10 08:34:22;;;;;;;18.77;5.05;;;9.00;99.90;;;;;;5016762;28;20088;-84
2023/01/10 08:36:53;;;;;;;19.45;5.53;;;9.00;99.90;;;;;;5014908;28;20030;-84
2023/01/10 08:39:21;;;;;;;19.98;4.90;;;9.00;99.90;;;;;;5014533;28;20057;-83
2023/01/10 08:41:48;;;;;;;23.33;5.03;;;9.10;99.90;;;;;;5017348;28;20444;-83
2023/01/10 08:44:14;;;;;;;16.63;4.78;;;9.00;99.90;;;;;;5012951;28;20044;-85
2023/01/10 08:46:41;;;;;;;18.77;5.38;;;9.10;99.90;;;;;;5013818;28;20069;-85
2023/01/10 08:49:07;;;;;;;23.98;5.15;;;9.10;99.90;;;;;;5013254;28;20117;-86
2023/01/10 08:51:33;;;;;;;19.08;5.65;;;9.10;99.90;;;;;;5013022;28;20084;-83
2023/01/10 08:53:59;;;;;;;16.70;6.13;;;9.20;99.90;;;;;;5013935;28;20049;-85
2023/01/10 08:56:25;;;;;;;26.20;5.20;;;9.20;99.90;;;;;;5012974;28;20034;-84
2023/01/10 08:58:50;;;;;;;22.40;5.75;;;9.20;99.90;;;;;;5015389;28;20037;-84
2023/01/10 09:01:16;;;;;;;17.20;5.35;;;9.20;99.90;;;;;;5014200;28;20029;-84
2023/01/10 09:03:42;;;;;;;19.13;5.35;;;9.20;99.90;;;;;;5015951;28;20029;-86
2023/01/10 09:06:08;;;;;;;20.85;4.90;;;9.20;99.90;;;;;;5016071;28;20369;-84
2023/01/10 09:08:35;;;;;;;29.65;6.45;;;9.20;99.90;;;;;;5017843;28;20419;-84
2023/01/10 09:11:01;;;;;;;28.42;7.35;;;9.40;99.90;;;;;;5021094;28;20465;-81
2023/01/10 09:13:27;;;;;;;20.48;5.30;;;9.40;99.90;;;;;;5017686;28;20466;-85
2023/01/10 09:15:54;;;;;;;16.85;5.47;;;9.40;99.90;;;;;;5017739;28;20022;-83
2023/01/10 09:18:20;;;;;;;24.33;6.28;;;9.40;99.90;;;;;;5017220;28;20068;-83
2023/01/10 09:20:45;;;;;;;18.38;6.10;;;9.40;99.90;;;;;;5014707;28;20041;-84
2023/01/10 09:23:18;;;;;;;51.78;19.02;;;9.40;99.90;;;;;;5021327;28;20460;-82
2023/01/10 09:25:49;;;;;;;23.35;6.97;;;9.40;99.90;;;;;;5017578;28;20125;-82
2023/01/10 09:28:15;;;;;;;28.33;6.13;;;9.40;99.90;;;;;;5020937;28;20029;-83
2023/01/10 09:30:41;;;;;;;27.48;6.38;;;9.40;99.90;;;;;;5023362;28;20037;-85
2023/01/10 09:33:07;;;;;;;18.90;6.07;;;9.40;99.90;;;;;;5025154;28;20054;-83
2023/01/10 09:35:38;;;;;;;21.58;6.85;;;9.30;99.90;;;;;;5024205;28;20096;-85
2023/01/10 09:38:05;;;;;;;26.17;7.53;;;9.40;99.90;;;;;;5030955;28;20037;-83
2023/01/10 09:40:47;;;;;;;22.63;6.28;;;9.40;99.90;;;;;;5028143;28;20041;-84
2023/01/10 09:43:20;;;;;;;19.35;8.02;;;9.40;99.90;;;;;;5028519;28;20093;-84
2023/01/10 09:46:04;;;;;;;22.13;6.30;;;9.40;99.90;;;;;;5025363;28;20718;-83
2023/01/10 09:48:59;;;;;;;19.75;7.05;;;9.20;99.90;;;;;;5021959;28;20086;-84
2023/01/10 09:51:43;;;;;;;24.48;7.65;;;9.20;99.90;;;;;;5023325;28;20027;-84
2023/01/10 09:54:32;;;;;;;27.23;7.65;;;9.20;99.90;;;;;;5023428;28;20026;-83
2023/01/10 09:57:00;;;;;;;25.42;7.97;;;9.30;99.90;;;;;;5022340;28;20053;-83
2023/01/10 09:59:49;;;;;;;24.42;7.43;;;9.40;99.90;;;;;;5015016;28;20453;-84
2023/01/10 10:02:43;;;;;;;31.92;8.27;;;9.30;99.90;;;;;;5013692;28;20034;-84
2023/01/10 10:05:17;;;;;;;22.50;7.75;;;9.40;99.90;;;;;;5012784;28;20034;-85
2023/01/10 10:07:43;;;;;;;26.90;7.45;;;9.30;99.90;;;;;;5012888;28;20018;-84
2023/01/10 10:10:23;;;;;;;17.98;7.90;;;9.30;99.90;;;;;;5013312;28;20119;-84
2023/01/10 10:13:04;;;;;;;29.23;8.48;;;9.30;99.90;;;;;;5014990;28;20034;-84
2023/01/10 10:15:52;;;;;;;29.05;9.00;;;9.40;99.90;;;;;;5014742;28;20033;-82
2023/01/10 10:18:33;;;;;;;26.67;8.38;;;9.50;99.90;;;;;;5014240;28;20026;-83
2023/01/10 10:21:06;;;;;;;25.10;7.47;;;9.40;99.90;;;;;;5013217;28;20037;-85
2023/01/10 10:23:40;;;;;;;19.67;8.20;;;9.30;99.90;;;;;;5012602;28;20476;-85
2023/01/10 10:26:31;;;;;;;25.20;7.68;;;9.50;99.90;;;;;;5014435;28;20042;-84
2023/01/10 10:29:23;;;;;;;30.45;10.30;;;9.50;99.90;;;;;;5013484;28;20574;-82
2023/01/10 10:32:12;;;;;;;29.13;9.63;;;9.50;99.90;;;;;;5013473;28;20530;-83
2023/01/10 10:34:47;;;;;;;28.58;9.60;;;9.50;99.90;;;;;;5014477;28;20448;-83
2023/01/10 10:37:18;;;;;;;23.80;9.60;;;9.60;99.90;;;;;;5014929;28;20033;-84
2023/01/10 10:39:50;;;;;;;27.60;9.60;;;9.60;99.90;;;;;;5017196;28;20153;-83
2023/01/10 10:42:18;;;;;;;31.10;9.43;;;9.50;99.90;;;;;;5019169;28;20029;-84
2023/01/10 10:45:04;;;;;;;26.67;9.43;;;9.70;99.90;;;;;;5020707;28;20080;-85
2023/01/10 10:47:35;;;;;;;27.50;9.45;;;9.80;99.90;;;;;;5019941;28;20042;-84
2023/01/10 10:50:28;;;;;;;26.65;8.70;;;9.90;99.90;;;;;;5019829;28;20040;-83
2023/01/10 10:52:54;;;;;;;27.98;8.50;;;9.70;99.90;;;;;;5019495;28;20041;-85
2023/01/10 10:55:29;;;;;;;28.55;8.60;;;9.80;99.90;;;;;;5018833;28;20125;-86
2023/01/10 10:57:55;;;;;;;23.98;8.07;;;9.80;99.90;;;;;;5018734;28;20379;-85
2023/01/10 11:00:22;;;;;;;23.63;7.50;;;9.80;99.90;;;;;;5019149;28;20022;-87
2023/01/10 11:02:59;;;;;;;21.58;7.57;;;9.70;99.90;;;;;;5016358;28;20025;-83
2023/01/10 11:05:45;;;;;;;26.13;7.60;;;9.70;99.90;;;;;;5016797;28;20043;-84
2023/01/10 11:08:17;;;;;;;23.70;7.55;;;9.70;99.90;;;;;;4996546;28;20027;-83
2023/01/10 11:10:47;;;;;;;21.73;7.32;;;9.70;99.90;;;;;;4994441;28;20027;-84
2023/01/10 11:13:19;;;;;;;29.90;7.45;;;9.80;99.90;;;;;;4995472;28;20038;-85
2023/01/10 11:15:47;;;;;;;19.00;7.00;;;9.90;99.90;;;;;;4996485;28;20053;-87
2023/01/10 11:18:33;;;;;;;20.92;6.95;;;9.80;99.90;;;;;;4998446;28;20022;-81
2023/01/10 11:21:12;;;;;;;17.55;5.72;;;9.60;99.90;;;;;;4999621;28;20030;-84
2023/01/10 11:23:43;;;;;;;28.17;6.97;;;9.60;99.90;;;;;;4996693;28;20116;-83
2023/01/10 11:26:25;;;;;;;25.58;6.97;;;9.70;99.90;;;;;;4999013;28;20046;-84
2023/01/10 11:29:04;;;;;;;26.48;7.45;;;9.80;99.90;;;;;;4996336;28;20460;-83
2023/01/10 11:31:31;;;;;;;22.25;6.60;;;9.80;99.90;;;;;;4997425;28;20115;-84
2023/01/10 11:33:57;;;;;;;30.80;7.85;;;9.80;99.90;;;;;;4997050;28;20453;-86
2023/01/10 11:36:23;;;;;;;22.83;7.13;;;9.90;99.90;;;;;;4995620;28;20523;-78
2023/01/10 11:39:16;;;;;;;27.88;8.18;;;9.70;99.90;;;;;;4996317;28;20026;-83
2023/01/10 11:41:42;;;;;;;33.33;8.05;;;9.90;99.90;;;;;;4995554;28;20045;-81
2023/01/10 11:44:22;;;;;;;29.50;8.48;;;9.90;99.90;;;;;;4994487;28;20034;-80
2023/01/10 11:46:54;;;;;;;31.27;7.05;;;10.00;99.90;;;;;;4995296;28;20042;-83
2023/01/10 11:49:31;;;;;;;31.15;7.60;;;9.90;99.90;;;;;;4996149;28;20038;-83
2023/01/10 11:52:02;;;;;;;23.52;6.43;;;10.00;99.90;;;;;;4995507;28;20023;-83
2023/01/10 11:54:30;;;;;;;21.88;7.18;;;10.00;99.90;;;;;;4996379;28;20050;-81
2023/01/10 11:56:57;;;;;;;67.35;25.92;;;9.90;99.90;;;;;;4995191;28;20088;-82
2023/01/10 11:59:33;;;;;;;64.82;23.83;;;9.80;99.90;;;;;;4995972;28;20026;-91
2023/01/10 12:02:07;;;;;;;26.50;7.90;;;9.90;99.90;;;;;;5001192;28;20030;-92
2023/01/10 12:04:42;;;;;;;25.08;7.63;;;9.80;99.90;;;;;;5004305;28;20030;-90
2023/01/10 12:07:10;;;;;;;29.40;7.78;;;9.90;99.90;;;;;;5005924;28;20122;-90
2023/01/10 12:10:01;;;;;;;32.28;8.43;;;10.00;99.90;;;;;;5007474;28;20030;-95
2023/01/10 12:12:30;;;;;;;20.30;7.00;;;10.00;99.90;;;;;;5006716;28;20041;-94
2023/01/10 12:14:58;;;;;;;23.38;7.40;;;9.80;99.90;;;;;;5003241;28;20052;-95
2023/01/10 12:17:28;;;;;;;31.40;7.60;;;9.90;99.90;;;;;;5006032;28;20034;-94
2023/01/10 12:19:59;;;;;;;29.90;6.90;;;9.90;99.90;;;;;;5004149;28;20042;-93
2023/01/10 12:22:46;;;;;;;33.40;7.43;;;10.00;99.90;;;;;;5004307;28;20045;-94
2023/01/10 12:25:24;;;;;;;20.55;6.35;;;9.90;99.90;;;;;;5003560;28;20105;-94
2023/01/10 12:27:50;;;;;;;21.52;5.82;;;9.70;99.90;;;;;;5004713;28;20065;-92
2023/01/10 12:30:24;;;;;;;27.15;6.15;;;9.70;99.90;;;;;;5002761;28;20018;-88
2023/01/10 12:32:56;;;;;;;20.50;6.25;;;9.70;99.90;;;;;;5003729;28;20023;-91
2023/01/10 12:35:46;;;;;;;30.27;6.40;;;9.80;99.90;;;;;;5002544;28;20093;-91
2023/01/10 12:44:09;;;;;;;28.42;6.68;;;9.80;99.90;;;;;;5000853;28;20369;-86
2023/01/10 12:44:15;;;;;;;28.65;6.47;;;9.90;99.90;;;;;;5002742;28;20376;-85
2023/01/10 12:47:18;;;;;;;27.25;6.15;;;9.80;99.90;;;;;;5000363;28;20061;-85
2023/01/10 12:49:48;;;;;;;34.13;7.78;;;9.70;99.90;;;;;;5000215;28;20125;-85
2023/01/10 12:52:23;;;;;;;29.25;7.55;;;9.80;99.90;;;;;;5002299;28;20038;-85
2023/01/10 12:54:49;;;;;;;23.45;6.40;;;9.90;99.90;;;;;;5003778;28;20057;-87
2023/01/10 12:57:29;;;;;;;20.55;6.93;;;9.90;99.90;;;;;;4999407;28;20476;-88
2023/01/10 12:59:57;;;;;;;25.27;5.63;;;10.00;99.90;;;;;;4996848;28;20039;-87
2023/01/10 13:02:27;;;;;;;25.33;5.43;;;10.00;99.80;;;;;;4996567;28;20054;-87
2023/01/10 13:04:57;;;;;;;20.30;5.30;;;9.90;99.90;;;;;;4996959;28;20026;-87
2023/01/10 13:07:31;;;;;;;27.10;6.18;;;9.90;99.90;;;;;;4997525;28;20039;-88
2023/01/10 13:09:57;;;;;;;20.38;5.93;;;10.00;99.60;;;;;;4997204;28;20453;-89
2023/01/10 13:12:34;;;;;;;17.67;5.00;;;10.00;99.50;;;;;;4997267;28;20356;-90
2023/01/10 13:15:21;;;;;;;25.45;6.05;;;10.00;99.20;;;;;;4997207;28;20022;-90
2023/01/10 13:17:59;;;;;;;28.27;5.18;;;10.00;99.20;;;;;;5002034;28;20180;-90